sensor_id;sensor_type;location;lat;lon;timestamp;temperature;humidity
21861;DHT22;11095;48.066;8.540;2023-06-05T00:01:13;11.70;99.90
21861;DHT22;11095;48.066;8.540;2023-06-05T00:03:38;11.70;99.90
21861;DHT22;11095;48.066;8.540;2023-06-05T00:06:04;11.70;99.90
21861;DHT22;11095;48.066;8.540;2023-06-05T00:08:30;11.70;99.90
21861;DHT22;11095;48.066;8.540;2023-06-05T00:10:56;11.70;99.90
21861;DHT22;11095;48.066;8.540;2023-06-05T00:13:22;11.60;99.90
21861;DHT22;11095;48.066;8.540;2023-06-05T00:15:47;11.60;99.90
21861;DHT22;11095;48.066;8.540;2023-06-05T00:18:13;11.50;99.90
21861;DHT22;11095;48.066;8.540;2023-06-05T00:20:39;11.50;99.90
21861;DHT22;11095;48.066;8.540;2023-06-05T00:23:06;11.40;99.90
21861;DHT22;11095;48.066;8.540;2023-06-05T00:25:31;11.40;99.90
21861;DHT22;11095;48.066;8.540;2023-06-05T00:27:57;11.40;99.90
21861;DHT22;11095;48.066;8.540;2023-06-05T00:30:22;11.30;99.90
21861;DHT22;11095;48.066;8.540;2023-06-05T00:32:48;11.40;99.90
21861;DHT22;11095;48.066;8.540;2023-06-05T00:35:14;11.30;99.90
21861;DHT22;11095;48.066;8.540;2023-06-05T00:37:39;11.30;99.90
21861;DHT22;11095;48.066;8.540;2023-06-05T00:40:07;11.30;99.90
21861;DHT22;11095;48.066;8.540;2023-06-05T00:42:32;11.20;99.90
21861;DHT22;11095;48.066;8.540;2023-06-05T00:44:58;11.20;99.90
21861;DHT22;11095;48.066;8.540;2023-06-05T00:47:24;11.20;99.90
21861;DHT22;11095;48.066;8.540;2023-06-05T00:49:49;11.10;99.90
21861;DHT22;11095;48.066;8.540;2023-06-05T00:52:16;11.10;99.90
21861;DHT22;11095;48.066;8.540;2023-06-05T00:54:42;11.00;99.90
21861;DHT22;11095;48.066;8.540;2023-06-05T00:57:08;11.00;99.90
21861;DHT22;11095;48.066;8.540;2023-06-05T00:59:36;10.90;99.90
21861;DHT22;11095;48.066;8.540;2023-06-05T01:02:02;10.90;99.90
21861;DHT22;11095;48.066;8.540;2023-06-05T01:04:28;10.80;99.90
21861;DHT22;11095;48.066;8.540;2023-06-05T01:06:55;10.80;99.90
21861;DHT22;11095;48.066;8.540;2023-06-05T01:09:23;10.70;99.90
21861;DHT22;11095;48.066;8.540;2023-06-05T01:14:20;10.60;99.90
21861;DHT22;11095;48.066;8.540;2023-06-05T01:16:51;10.60;99.90
21861;DHT22;11095;48.066;8.540;2023-06-05T01:19:22;10.60;99.90
21861;DHT22;11095;48.066;8.540;2023-06-05T01:21:51;10.60;99.90
21861;DHT22;11095;48.066;8.540;2023-06-05T01:24:17;10.60;99.90
21861;DHT22;11095;48.066;8.540;2023-06-05T01:29:37;10.50;99.90
21861;DHT22;11095;48.066;8.540;2023-06-05T01:32:15;10.40;99.90
21861;DHT22;11095;48.066;8.540;2023-06-05T01:34:44;10.30;99.90
21861;DHT22;11095;48.066;8.540;2023-06-05T01:37:11;10.30;99.90
21861;DHT22;11095;48.066;8.540;2023-06-05T01:39:45;10.20;99.90
21861;DHT22;11095;48.066;8.540;2023-06-05T01:42:12;10.10;99.90
21861;DHT22;11095;48.066;8.540;2023-06-05T01:44:39;10.10;99.90
21861;DHT22;11095;48.066;8.540;2023-06-05T01:47:07;10.10;99.90
21861;DHT22;11095;48.066;8.540;2023-06-05T01:49:34;10.10;99.90
21861;DHT22;11095;48.066;8.540;2023-06-05T01:51:59;10.10;99.90
21861;DHT22;11095;48.066;8.540;2023-06-05T01:54:25;10.00;99.90
21861;DHT22;11095;48.066;8.540;2023-06-05T01:56:52;10.00;99.90
21861;DHT22;11095;48.066;8.540;2023-06-05T01:59:19;9.90;99.90
21861;DHT22;11095;48.066;8.540;2023-06-05T02:01:45;9.90;99.90
21861;DHT22;11095;48.066;8.540;2023-06-05T02:04:11;9.80;99.90
21861;DHT22;11095;48.066;8.540;2023-06-05T02:06:42;9.80;99.90
21861;DHT22;11095;48.066;8.540;2023-06-05T02:09:09;9.80;99.90
21861;DHT22;11095;48.066;8.540;2023-06-05T02:11:38;9.80;99.90
21861;DHT22;11095;48.066;8.540;2023-06-05T02:14:05;9.80;99.90
21861;DHT22;11095;48.066;8.540;2023-06-05T02:16:32;9.80;99.90
21861;DHT22;11095;48.066;8.540;2023-06-05T02:18:58;9.80;99.90
21861;DHT22;11095;48.066;8.540;2023-06-05T02:21:32;9.80;99.90
21861;DHT22;11095;48.066;8.540;2023-06-05T02:23:59;9.80;99.90
21861;DHT22;11095;48.066;8.540;2023-06-05T02:26:25;9.80;99.90
21861;DHT22;11095;48.066;8.540;2023-06-05T02:28:51;9.70;99.90
21861;DHT22;11095;48.066;8.540;2023-06-05T02:31:22;9.70;99.90
21861;DHT22;11095;48.066;8.540;2023-06-05T02:33:51;9.70;99.90
21861;DHT22;11095;48.066;8.540;2023-06-05T02:36:17;9.60;99.90
21861;DHT22;11095;48.066;8.540;2023-06-05T02:38:43;9.60;99.90
21861;DHT22;11095;48.066;8.540;2023-06-05T02:41:10;9.60;99.90
21861;DHT22;11095;48.066;8.540;2023-06-05T02:43:35;9.50;99.90
21861;DHT22;11095;48.066;8.540;2023-06-05T02:46:01;9.50;99.90
21861;DHT22;11095;48.066;8.540;2023-06-05T02:48:27;9.40;99.90
21861;DHT22;11095;48.066;8.540;2023-06-05T02:50:52;9.40;99.90
21861;DHT22;11095;48.066;8.540;2023-06-05T02:53:18;9.40;99.90
21861;DHT22;11095;48.066;8.540;2023-06-05T02:55:43;9.40;99.90
21861;DHT22;11095;48.066;8.540;2023-06-05T02:58:10;9.40;99.90
21861;DHT22;11095;48.066;8.540;2023-06-05T03:00:38;9.40;99.90
21861;DHT22;11095;48.066;8.540;2023-06-05T03:03:04;9.40;99.90
21861;DHT22;11095;48.066;8.540;2023-06-05T03:05:32;9.30;99.90
21861;DHT22;11095;48.066;8.540;2023-06-05T03:08:04;9.30;99.90
21861;DHT22;11095;48.066;8.540;2023-06-05T03:10:32;9.20;99.90
21861;DHT22;11095;48.066;8.540;2023-06-05T03:12:57;9.10;99.90
21861;DHT22;11095;48.066;8.540;2023-06-05T03:15:23;9.10;99.90
21861;DHT22;11095;48.066;8.540;2023-06-05T03:17:49;9.00;99.90
21861;DHT22;11095;48.066;8.540;2023-06-05T03:20:17;8.90;99.90
21861;DHT22;11095;48.066;8.540;2023-06-05T03:22:43;8.90;99.90
21861;DHT22;11095;48.066;8.540;2023-06-05T03:25:09;8.80;99.90
21861;DHT22;11095;48.066;8.540;2023-06-05T03:27:35;8.80;99.90
21861;DHT22;11095;48.066;8.540;2023-06-05T03:30:01;8.90;99.90
21861;DHT22;11095;48.066;8.540;2023-06-05T03:32:27;9.00;99.90
21861;DHT22;11095;48.066;8.540;2023-06-05T03:34:52;9.00;99.90
21861;DHT22;11095;48.066;8.540;2023-06-05T03:37:18;9.00;99.90
21861;DHT22;11095;48.066;8.540;2023-06-05T03:39:44;9.00;99.90
21861;DHT22;11095;48.066;8.540;2023-06-05T03:42:09;9.10;99.90
21861;DHT22;11095;48.066;8.540;2023-06-05T03:44:36;9.10;99.90
21861;DHT22;11095;48.066;8.540;2023-06-05T03:47:03;9.20;99.90
21861;DHT22;11095;48.066;8.540;2023-06-05T03:49:29;9.50;99.90
21861;DHT22;11095;48.066;8.540;2023-06-05T03:51:55;9.90;99.90
21861;DHT22;11095;48.066;8.540;2023-06-05T03:54:28;10.30;99.90
21861;DHT22;11095;48.066;8.540;2023-06-05T03:56:55;10.80;99.90
21861;DHT22;11095;48.066;8.540;2023-06-05T03:59:21;11.30;99.90
21861;DHT22;11095;48.066;8.540;2023-06-05T04:01:48;11.90;99.90
21861;DHT22;11095;48.066;8.540;2023-06-05T04:04:14;12.40;99.90
21861;DHT22;11095;48.066;8.540;2023-06-05T04:06:40;13.10;99.90
21861;DHT22;11095;48.066;8.540;2023-06-05T04:09:06;13.70;99.90
21861;DHT22;11095;48.066;8.540;2023-06-05T04:11:41;14.30;99.90
21861;DHT22;11095;48.066;8.540;2023-06-05T04:14:08;15.00;99.90
21861;DHT22;11095;48.066;8.540;2023-06-05T04:16:37;15.70;99.90
21861;DHT22;11095;48.066;8.540;2023-06-05T04:19:09;16.20;99.90
21861;DHT22;11095;48.066;8.540;2023-06-05T04:21:36;16.80;99.90
21861;DHT22;11095;48.066;8.540;2023-06-05T04:24:04;17.30;99.90
21861;DHT22;11095;48.066;8.540;2023-06-05T04:26:33;17.80;99.90
21861;DHT22;11095;48.066;8.540;2023-06-05T04:28:59;18.30;99.90
21861;DHT22;11095;48.066;8.540;2023-06-05T04:31:25;19.00;99.90
21861;DHT22;11095;48.066;8.540;2023-06-05T04:33:51;19.90;99.90
21861;DHT22;11095;48.066;8.540;2023-06-05T04:36:17;20.60;99.90
21861;DHT22;11095;48.066;8.540;2023-06-05T04:38:43;21.30;99.90
21861;DHT22;11095;48.066;8.540;2023-06-05T04:41:10;22.00;99.90
21861;DHT22;11095;48.066;8.540;2023-06-05T04:43:36;22.60;99.90
21861;DHT22;11095;48.066;8.540;2023-06-05T04:46:02;23.30;99.90
21861;DHT22;11095;48.066;8.540;2023-06-05T04:48:28;24.00;99.90
21861;DHT22;11095;48.066;8.540;2023-06-05T04:50:54;24.40;99.40
21861;DHT22;11095;48.066;8.540;2023-06-05T04:53:21;24.50;98.00
21861;DHT22;11095;48.066;8.540;2023-06-05T04:55:47;24.70;97.50
21861;DHT22;11095;48.066;8.540;2023-06-05T04:58:14;25.20;96.30
21861;DHT22;11095;48.066;8.540;2023-06-05T05:00:42;25.50;94.70
21861;DHT22;11095;48.066;8.540;2023-06-05T05:03:10;25.80;94.30
21861;DHT22;11095;48.066;8.540;2023-06-05T05:05:39;26.30;93.50
21861;DHT22;11095;48.066;8.540;2023-06-05T05:08:05;26.90;92.30
21861;DHT22;11095;48.066;8.540;2023-06-05T05:10:31;27.30;90.80
21861;DHT22;11095;48.066;8.540;2023-06-05T05:12:57;27.50;89.60
21861;DHT22;11095;48.066;8.540;2023-06-05T05:15:27;28.00;88.00
21861;DHT22;11095;48.066;8.540;2023-06-05T05:17:54;28.60;85.30
21861;DHT22;11095;48.066;8.540;2023-06-05T05:20:20;29.00;83.10
21861;DHT22;11095;48.066;8.540;2023-06-05T05:22:45;29.60;81.00
21861;DHT22;11095;48.066;8.540;2023-06-05T05:25:12;30.20;77.30
21861;DHT22;11095;48.066;8.540;2023-06-05T05:27:37;30.40;76.00
21861;DHT22;11095;48.066;8.540;2023-06-05T05:30:03;30.40;75.20
21861;DHT22;11095;48.066;8.540;2023-06-05T05:32:30;30.70;73.90
21861;DHT22;11095;48.066;8.540;2023-06-05T05:34:55;30.80;70.50
21861;DHT22;11095;48.066;8.540;2023-06-05T05:37:21;30.70;70.60
21861;DHT22;11095;48.066;8.540;2023-06-05T05:39:47;30.90;69.40
21861;DHT22;11095;48.066;8.540;2023-06-05T05:42:13;31.20;68.60
21861;DHT22;11095;48.066;8.540;2023-06-05T05:44:38;31.30;69.20
21861;DHT22;11095;48.066;8.540;2023-06-05T05:47:08;31.30;65.90
21861;DHT22;11095;48.066;8.540;2023-06-05T05:49:34;30.50;65.50
21861;DHT22;11095;48.066;8.540;2023-06-05T05:51:59;30.70;65.80
21861;DHT22;11095;48.066;8.540;2023-06-05T05:54:25;31.00;66.00
21861;DHT22;11095;48.066;8.540;2023-06-05T05:56:53;31.20;66.90
21861;DHT22;11095;48.066;8.540;2023-06-05T05:59:19;30.80;65.20
21861;DHT22;11095;48.066;8.540;2023-06-05T06:01:45;30.20;66.40
21861;DHT22;11095;48.066;8.540;2023-06-05T06:04:11;29.80;67.60
21861;DHT22;11095;48.066;8.540;2023-06-05T06:06:37;29.70;67.70
21861;DHT22;11095;48.066;8.540;2023-06-05T06:09:05;29.70;69.00
21861;DHT22;11095;48.066;8.540;2023-06-05T06:11:33;30.20;68.00
21861;DHT22;11095;48.066;8.540;2023-06-05T06:13:59;30.60;66.60
21861;DHT22;11095;48.066;8.540;2023-06-05T06:16:25;30.60;65.30
21861;DHT22;11095;48.066;8.540;2023-06-05T06:18:51;29.20;60.80
21861;DHT22;11095;48.066;8.540;2023-06-05T06:21:18;25.60;65.00
21861;DHT22;11095;48.066;8.540;2023-06-05T06:23:44;23.80;71.00
21861;DHT22;11095;48.066;8.540;2023-06-05T06:26:10;22.80;73.90
21861;DHT22;11095;48.066;8.540;2023-06-05T06:28:37;22.40;75.40
21861;DHT22;11095;48.066;8.540;2023-06-05T06:31:03;22.20;79.20
21861;DHT22;11095;48.066;8.540;2023-06-05T06:33:29;22.30;79.80
21861;DHT22;11095;48.066;8.540;2023-06-05T06:35:55;23.60;77.10
21861;DHT22;11095;48.066;8.540;2023-06-05T06:38:24;24.70;76.20
21861;DHT22;11095;48.066;8.540;2023-06-05T06:40:58;25.30;73.80
21861;DHT22;11095;48.066;8.540;2023-06-05T06:43:25;25.00;75.00
21861;DHT22;11095;48.066;8.540;2023-06-05T06:45:52;25.50;75.80
21861;DHT22;11095;48.066;8.540;2023-06-05T06:48:18;26.60;74.50
21861;DHT22;11095;48.066;8.540;2023-06-05T06:50:44;27.60;73.30
21861;DHT22;11095;48.066;8.540;2023-06-05T06:53:10;26.90;70.10
21861;DHT22;11095;48.066;8.540;2023-06-05T06:55:36;26.70;70.00
21861;DHT22;11095;48.066;8.540;2023-06-05T06:58:02;25.90;70.60
21861;DHT22;11095;48.066;8.540;2023-06-05T07:00:30;26.30;71.60
21861;DHT22;11095;48.066;8.540;2023-06-05T07:02:56;27.40;68.90
21861;DHT22;11095;48.066;8.540;2023-06-05T07:05:22;25.40;71.00
21861;DHT22;11095;48.066;8.540;2023-06-05T07:07:48;25.70;72.80
21861;DHT22;11095;48.066;8.540;2023-06-05T07:10:14;26.10;72.40
21861;DHT22;11095;48.066;8.540;2023-06-05T07:12:39;26.60;72.80
21861;DHT22;11095;48.066;8.540;2023-06-05T07:15:05;28.30;71.10
21861;DHT22;11095;48.066;8.540;2023-06-05T07:17:31;26.30;70.50
21861;DHT22;11095;48.066;8.540;2023-06-05T07:19:57;28.00;71.70
21861;DHT22;11095;48.066;8.540;2023-06-05T07:22:23;26.70;70.10
21861;DHT22;11095;48.066;8.540;2023-06-05T07:24:53;26.80;70.50
21861;DHT22;11095;48.066;8.540;2023-06-05T07:27:19;26.30;71.50
21861;DHT22;11095;48.066;8.540;2023-06-05T07:29:46;27.10;72.00
21861;DHT22;11095;48.066;8.540;2023-06-05T07:32:12;26.80;71.50
21861;DHT22;11095;48.066;8.540;2023-06-05T07:34:38;26.00;71.80
21861;DHT22;11095;48.066;8.540;2023-06-05T07:37:04;26.30;73.40
21861;DHT22;11095;48.066;8.540;2023-06-05T07:39:32;26.90;73.30
21861;DHT22;11095;48.066;8.540;2023-06-05T07:41:58;28.60;72.10
21861;DHT22;11095;48.066;8.540;2023-06-05T07:44:23;30.20;67.90
21861;DHT22;11095;48.066;8.540;2023-06-05T07:46:50;26.50;68.90
21861;DHT22;11095;48.066;8.540;2023-06-05T07:49:16;26.60;72.50
21861;DHT22;11095;48.066;8.540;2023-06-05T07:51:42;26.70;73.70
21861;DHT22;11095;48.066;8.540;2023-06-05T07:54:12;25.50;76.60
21861;DHT22;11095;48.066;8.540;2023-06-05T07:56:39;25.90;75.10
21861;DHT22;11095;48.066;8.540;2023-06-05T07:59:06;25.80;76.00
21861;DHT22;11095;48.066;8.540;2023-06-05T08:01:33;25.30;76.20
21861;DHT22;11095;48.066;8.540;2023-06-05T08:04:04;24.50;77.90
21861;DHT22;11095;48.066;8.540;2023-06-05T08:06:30;25.40;76.70
21861;DHT22;11095;48.066;8.540;2023-06-05T08:08:58;26.50;75.20
21861;DHT22;11095;48.066;8.540;2023-06-05T08:11:24;26.10;73.50
21861;DHT22;11095;48.066;8.540;2023-06-05T08:13:50;24.50;76.90
21861;DHT22;11095;48.066;8.540;2023-06-05T08:16:16;24.90;77.40
21861;DHT22;11095;48.066;8.540;2023-06-05T08:18:42;25.30;78.50
21861;DHT22;11095;48.066;8.540;2023-06-05T08:21:07;25.40;78.10
21861;DHT22;11095;48.066;8.540;2023-06-05T08:23:33;25.80;77.30
21861;DHT22;11095;48.066;8.540;2023-06-05T08:25:59;26.00;75.90
21861;DHT22;11095;48.066;8.540;2023-06-05T08:28:24;24.50;76.80
21861;DHT22;11095;48.066;8.540;2023-06-05T08:30:50;24.50;78.80
21861;DHT22;11095;48.066;8.540;2023-06-05T08:33:18;24.00;77.20
21861;DHT22;11095;48.066;8.540;2023-06-05T08:35:45;23.00;80.70
21861;DHT22;11095;48.066;8.540;2023-06-05T08:38:10;22.40;83.20
21861;DHT22;11095;48.066;8.540;2023-06-05T08:40:36;22.30;82.80
21861;DHT22;11095;48.066;8.540;2023-06-05T08:43:04;22.80;81.90
21861;DHT22;11095;48.066;8.540;2023-06-05T08:45:32;23.10;80.30
21861;DHT22;11095;48.066;8.540;2023-06-05T08:48:00;23.80;81.80
21861;DHT22;11095;48.066;8.540;2023-06-05T08:50:29;23.00;81.60
21861;DHT22;11095;48.066;8.540;2023-06-05T08:53:02;23.60;80.90
21861;DHT22;11095;48.066;8.540;2023-06-05T08:55:29;23.30;78.10
21861;DHT22;11095;48.066;8.540;2023-06-05T08:57:55;23.10;78.80
21861;DHT22;11095;48.066;8.540;2023-06-05T09:00:21;22.60;79.90
21861;DHT22;11095;48.066;8.540;2023-06-05T09:02:47;23.60;80.10
21861;DHT22;11095;48.066;8.540;2023-06-05T09:05:14;23.50;83.10
21861;DHT22;11095;48.066;8.540;2023-06-05T09:07:40;22.70;81.60
21861;DHT22;11095;48.066;8.540;2023-06-05T09:10:07;22.30;84.20
21861;DHT22;11095;48.066;8.540;2023-06-05T09:12:58;22.20;83.20
21861;DHT22;11095;48.066;8.540;2023-06-05T09:15:28;22.30;83.70
21861;DHT22;11095;48.066;8.540;2023-06-05T09:18:08;21.90;84.10
21861;DHT22;11095;48.066;8.540;2023-06-05T09:20:35;20.90;86.20
21861;DHT22;11095;48.066;8.540;2023-06-05T09:23:02;20.80;88.50
21861;DHT22;11095;48.066;8.540;2023-06-05T09:25:47;21.40;87.00
21861;DHT22;11095;48.066;8.540;2023-06-05T09:28:16;21.30;88.00
21861;DHT22;11095;48.066;8.540;2023-06-05T09:30:58;21.50;87.40
21861;DHT22;11095;48.066;8.540;2023-06-05T09:33:26;22.00;86.70
21861;DHT22;11095;48.066;8.540;2023-06-05T09:38:36;22.20;85.40
21861;DHT22;11095;48.066;8.540;2023-06-05T09:41:03;23.40;85.30
21861;DHT22;11095;48.066;8.540;2023-06-05T09:43:29;23.50;82.00
21861;DHT22;11095;48.066;8.540;2023-06-05T09:45:55;23.60;82.80
21861;DHT22;11095;48.066;8.540;2023-06-05T09:48:20;24.00;83.10
21861;DHT22;11095;48.066;8.540;2023-06-05T09:50:46;22.90;82.50
21861;DHT22;11095;48.066;8.540;2023-06-05T09:53:15;22.20;84.70
21861;DHT22;11095;48.066;8.540;2023-06-05T09:55:42;22.40;85.20
21861;DHT22;11095;48.066;8.540;2023-06-05T09:58:11;22.60;86.40
21861;DHT22;11095;48.066;8.540;2023-06-05T10:00:40;22.40;86.50
21861;DHT22;11095;48.066;8.540;2023-06-05T10:03:08;21.80;87.30
21861;DHT22;11095;48.066;8.540;2023-06-05T10:05:38;21.70;87.10
21861;DHT22;11095;48.066;8.540;2023-06-05T10:08:06;21.60;88.20
21861;DHT22;11095;48.066;8.540;2023-06-05T10:10:33;22.10;89.10
21861;DHT22;11095;48.066;8.540;2023-06-05T10:13:00;22.50;88.10
21861;DHT22;11095;48.066;8.540;2023-06-05T10:15:28;22.60;86.10
21861;DHT22;11095;48.066;8.540;2023-06-05T10:17:53;22.60;86.00
21861;DHT22;11095;48.066;8.540;2023-06-05T10:20:21;23.30;86.60
21861;DHT22;11095;48.066;8.540;2023-06-05T10:22:48;24.00;83.10
21861;DHT22;11095;48.066;8.540;2023-06-05T10:25:15;24.00;82.90
21861;DHT22;11095;48.066;8.540;2023-06-05T10:33:17;22.60;86.80
21861;DHT22;11095;48.066;8.540;2023-06-05T10:38:16;21.40;90.50
21861;DHT22;11095;48.066;8.540;2023-06-05T10:40:57;21.20;91.50
21861;DHT22;11095;48.066;8.540;2023-06-05T10:43:31;21.20;91.00
21861;DHT22;11095;48.066;8.540;2023-06-05T10:46:02;21.00;91.90
21861;DHT22;11095;48.066;8.540;2023-06-05T10:54:09;21.10;92.60
21861;DHT22;11095;48.066;8.540;2023-06-05T10:59:25;21.00;92.70
21861;DHT22;11095;48.066;8.540;2023-06-05T11:17:38;21.60;92.70
21861;DHT22;11095;48.066;8.540;2023-06-05T11:20:08;21.60;92.40
21861;DHT22;11095;48.066;8.540;2023-06-05T11:27:51;21.40;93.30
21861;DHT22;11095;48.066;8.540;2023-06-05T11:30:19;21.50;93.70
21861;DHT22;11095;48.066;8.540;2023-06-05T11:32:46;21.60;93.50
21861;DHT22;11095;48.066;8.540;2023-06-05T11:35:13;22.10;92.50
21861;DHT22;11095;48.066;8.540;2023-06-05T11:37:39;21.90;92.70
21861;DHT22;11095;48.066;8.540;2023-06-05T11:40:08;22.10;92.40
21861;DHT22;11095;48.066;8.540;2023-06-05T11:42:35;22.20;92.20
21861;DHT22;11095;48.066;8.540;2023-06-05T11:45:01;22.40;92.20
21861;DHT22;11095;48.066;8.540;2023-06-05T11:47:28;22.20;93.00
21861;DHT22;11095;48.066;8.540;2023-06-05T11:50:15;22.10;93.70
21861;DHT22;11095;48.066;8.540;2023-06-05T11:52:42;21.70;94.00
21861;DHT22;11095;48.066;8.540;2023-06-05T11:55:15;21.50;94.20
21861;DHT22;11095;48.066;8.540;2023-06-05T11:57:45;21.10;95.10
21861;DHT22;11095;48.066;8.540;2023-06-05T12:00:12;21.10;95.60
21861;DHT22;11095;48.066;8.540;2023-06-05T12:02:41;20.90;96.90
21861;DHT22;11095;48.066;8.540;2023-06-05T12:05:07;20.70;97.40
21861;DHT22;11095;48.066;8.540;2023-06-05T12:07:33;21.10;97.20
21861;DHT22;11095;48.066;8.540;2023-06-05T12:10:09;21.50;96.60
21861;DHT22;11095;48.066;8.540;2023-06-05T12:12:52;21.50;97.20
21861;DHT22;11095;48.066;8.540;2023-06-05T12:15:19;21.60;96.30
21861;DHT22;11095;48.066;8.540;2023-06-05T12:17:52;21.80;96.20
21861;DHT22;11095;48.066;8.540;2023-06-05T12:20:19;21.40;96.90
21861;DHT22;11095;48.066;8.540;2023-06-05T12:22:45;21.50;96.70
21861;DHT22;11095;48.066;8.540;2023-06-05T12:25:21;21.80;96.00
21861;DHT22;11095;48.066;8.540;2023-06-05T12:27:47;22.10;96.20
21861;DHT22;11095;48.066;8.540;2023-06-05T12:30:15;22.10;96.00
21861;DHT22;11095;48.066;8.540;2023-06-05T12:32:42;21.50;97.30
21861;DHT22;11095;48.066;8.540;2023-06-05T12:35:23;21.10;97.20
21861;DHT22;11095;48.066;8.540;2023-06-05T12:37:49;20.70;97.50
21861;DHT22;11095;48.066;8.540;2023-06-05T12:40:16;20.80;97.30
21861;DHT22;11095;48.066;8.540;2023-06-05T12:42:47;20.80;97.60
21861;DHT22;11095;48.066;8.540;2023-06-05T12:45:13;20.80;97.90
21861;DHT22;11095;48.066;8.540;2023-06-05T12:47:39;21.20;97.10
21861;DHT22;11095;48.066;8.540;2023-06-05T12:50:06;21.50;96.50
21861;DHT22;11095;48.066;8.540;2023-06-05T12:52:33;21.90;96.30
21861;DHT22;11095;48.066;8.540;2023-06-05T12:54:59;21.90;96.10
21861;DHT22;11095;48.066;8.540;2023-06-05T12:57:25;22.10;95.40
21861;DHT22;11095;48.066;8.540;2023-06-05T12:59:53;22.10;94.90
21861;DHT22;11095;48.066;8.540;2023-06-05T13:02:20;22.10;95.00
21861;DHT22;11095;48.066;8.540;2023-06-05T13:04:46;22.80;95.30
21861;DHT22;11095;48.066;8.540;2023-06-05T13:07:11;23.00;94.50
21861;DHT22;11095;48.066;8.540;2023-06-05T13:09:37;22.70;94.30
21861;DHT22;11095;48.066;8.540;2023-06-05T13:12:04;22.30;95.60
21861;DHT22;11095;48.066;8.540;2023-06-05T13:14:30;22.10;94.60
21861;DHT22;11095;48.066;8.540;2023-06-05T13:16:57;21.80;95.10
21861;DHT22;11095;48.066;8.540;2023-06-05T13:19:22;21.80;95.90
21861;DHT22;11095;48.066;8.540;2023-06-05T13:21:48;22.10;96.20
21861;DHT22;11095;48.066;8.540;2023-06-05T13:24:14;22.10;95.70
21861;DHT22;11095;48.066;8.540;2023-06-05T13:26:40;22.40;94.20
21861;DHT22;11095;48.066;8.540;2023-06-05T13:29:07;22.80;92.90
21861;DHT22;11095;48.066;8.540;2023-06-05T13:31:33;22.60;94.10
21861;DHT22;11095;48.066;8.540;2023-06-05T13:33:59;21.40;97.80
21861;DHT22;11095;48.066;8.540;2023-06-05T13:36:25;20.80;99.90
21861;DHT22;11095;48.066;8.540;2023-06-05T13:38:51;20.20;99.90
21861;DHT22;11095;48.066;8.540;2023-06-05T13:41:17;19.60;99.90
21861;DHT22;11095;48.066;8.540;2023-06-05T13:43:43;19.20;99.90
21861;DHT22;11095;48.066;8.540;2023-06-05T13:46:09;18.70;99.90
21861;DHT22;11095;48.066;8.540;2023-06-05T13:48:34;18.30;99.90
21861;DHT22;11095;48.066;8.540;2023-06-05T13:51:03;18.20;99.90
21861;DHT22;11095;48.066;8.540;2023-06-05T13:53:28;18.40;99.90
21861;DHT22;11095;48.066;8.540;2023-06-05T13:56:03;18.70;99.90
21861;DHT22;11095;48.066;8.540;2023-06-05T13:58:28;19.00;99.90
21861;DHT22;11095;48.066;8.540;2023-06-05T14:00:54;19.30;99.90
21861;DHT22;11095;48.066;8.540;2023-06-05T14:03:20;19.50;99.90
21861;DHT22;11095;48.066;8.540;2023-06-05T14:05:46;19.90;99.90
21861;DHT22;11095;48.066;8.540;2023-06-05T14:08:12;20.40;99.90
21861;DHT22;11095;48.066;8.540;2023-06-05T14:10:37;20.90;99.90
21861;DHT22;11095;48.066;8.540;2023-06-05T14:13:03;21.20;99.90
21861;DHT22;11095;48.066;8.540;2023-06-05T14:15:31;21.00;99.90
21861;DHT22;11095;48.066;8.540;2023-06-05T14:17:57;21.40;99.90
21861;DHT22;11095;48.066;8.540;2023-06-05T14:20:23;21.50;99.90
21861;DHT22;11095;48.066;8.540;2023-06-05T14:22:49;21.40;99.90
21861;DHT22;11095;48.066;8.540;2023-06-05T14:25:15;21.70;99.90
21861;DHT22;11095;48.066;8.540;2023-06-05T14:27:40;21.50;99.90
21861;DHT22;11095;48.066;8.540;2023-06-05T14:30:07;21.40;99.90
21861;DHT22;11095;48.066;8.540;2023-06-05T14:32:34;21.40;99.90
21861;DHT22;11095;48.066;8.540;2023-06-05T14:35:01;21.50;99.90
21861;DHT22;11095;48.066;8.540;2023-06-05T14:37:27;21.70;99.90
21861;DHT22;11095;48.066;8.540;2023-06-05T14:39:52;21.80;99.90
21861;DHT22;11095;48.066;8.540;2023-06-05T14:42:18;21.80;99.90
21861;DHT22;11095;48.066;8.540;2023-06-05T14:44:44;21.90;99.90
21861;DHT22;11095;48.066;8.540;2023-06-05T14:47:09;21.90;99.90
21861;DHT22;11095;48.066;8.540;2023-06-05T14:49:35;21.90;99.90
21861;DHT22;11095;48.066;8.540;2023-06-05T14:52:00;22.10;99.90
21861;DHT22;11095;48.066;8.540;2023-06-05T14:54:26;22.20;99.90
21861;DHT22;11095;48.066;8.540;2023-06-05T14:56:52;22.60;99.90
21861;DHT22;11095;48.066;8.540;2023-06-05T14:59:17;22.40;99.90
21861;DHT22;11095;48.066;8.540;2023-06-05T15:01:43;22.20;99.90
21861;DHT22;11095;48.066;8.540;2023-06-05T15:04:08;22.10;99.90
21861;DHT22;11095;48.066;8.540;2023-06-05T15:06:34;21.90;99.90
21861;DHT22;11095;48.066;8.540;2023-06-05T15:09:00;21.70;99.90
21861;DHT22;11095;48.066;8.540;2023-06-05T15:11:25;21.70;99.90
21861;DHT22;11095;48.066;8.540;2023-06-05T15:13:51;21.50;99.90
21861;DHT22;11095;48.066;8.540;2023-06-05T15:16:16;21.50;99.90
21861;DHT22;11095;48.066;8.540;2023-06-05T15:18:42;21.70;99.90
21861;DHT22;11095;48.066;8.540;2023-06-05T15:21:08;21.80;99.90
21861;DHT22;11095;48.066;8.540;2023-06-05T15:23:34;22.00;99.90
21861;DHT22;11095;48.066;8.540;2023-06-05T15:25:59;21.90;99.60
21861;DHT22;11095;48.066;8.540;2023-06-05T15:28:25;22.00;99.90
21861;DHT22;11095;48.066;8.540;2023-06-05T15:30:51;22.10;99.70
21861;DHT22;11095;48.066;8.540;2023-06-05T15:33:16;21.80;99.30
21861;DHT22;11095;48.066;8.540;2023-06-05T15:35:42;21.60;99.30
21861;DHT22;11095;48.066;8.540;2023-06-05T15:38:10;21.60;99.90
21861;DHT22;11095;48.066;8.540;2023-06-05T15:40:36;21.80;99.50
21861;DHT22;11095;48.066;8.540;2023-06-05T15:43:09;22.10;98.90
21861;DHT22;11095;48.066;8.540;2023-06-05T15:45:37;22.10;97.70
21861;DHT22;11095;48.066;8.540;2023-06-05T15:48:03;22.10;97.90
21861;DHT22;11095;48.066;8.540;2023-06-05T15:50:29;22.00;97.80
21861;DHT22;11095;48.066;8.540;2023-06-05T15:52:55;22.00;97.90
21861;DHT22;11095;48.066;8.540;2023-06-05T15:55:21;21.80;98.50
21861;DHT22;11095;48.066;8.540;2023-06-05T15:57:47;22.00;98.20
21861;DHT22;11095;48.066;8.540;2023-06-05T16:00:17;21.90;97.70
21861;DHT22;11095;48.066;8.540;2023-06-05T16:02:43;21.80;97.30
21861;DHT22;11095;48.066;8.540;2023-06-05T16:05:10;21.80;97.70
21861;DHT22;11095;48.066;8.540;2023-06-05T16:07:35;21.80;96.80
21861;DHT22;11095;48.066;8.540;2023-06-05T16:10:01;21.80;96.80
21861;DHT22;11095;48.066;8.540;2023-06-05T16:12:27;21.70;96.40
21861;DHT22;11095;48.066;8.540;2023-06-05T16:14:53;21.70;96.70
21861;DHT22;11095;48.066;8.540;2023-06-05T16:17:19;21.60;96.60